createdAt,value
2019-05-23T00:02:22.401Z,14.43
2019-05-23T00:07:29.416Z,16.17
2019-05-23T00:12:43.427Z,17.02
2019-05-23T00:17:48.716Z,16.35
2019-05-23T00:22:54.425Z,16.70
2019-05-23T00:45:41.735Z,15.10
2019-05-23T00:50:46.399Z,18.00
2019-05-23T00:55:51.259Z,15.90
2019-05-23T01:58:24.003Z,24.82
2019-05-23T02:03:28.656Z,21.82
2019-05-23T02:08:35.303Z,24.10
2019-05-23T02:13:40.122Z,24.77
2019-05-23T02:18:46.348Z,25.75
2019-05-23T02:23:50.682Z,25.97
2019-05-23T02:28:55.305Z,23.07
2019-05-23T02:34:00.094Z,24.40
2019-05-23T02:39:11.407Z,25.52
2019-05-23T02:44:17.478Z,25.95
2019-05-23T02:49:29.637Z,26.55
2019-05-23T02:54:37.436Z,25.02
2019-05-23T02:59:52.510Z,28.15
2019-05-23T03:04:58.917Z,26.42
2019-05-23T03:10:05.633Z,27.03
2019-05-23T03:15:12.912Z,26.50
2019-05-23T03:20:19.275Z,27.90
2019-05-23T03:25:38.901Z,27.93
2019-05-23T03:30:45.534Z,31.15
2019-05-23T03:36:03.737Z,32.48
2019-05-23T03:41:08.513Z,28.00
2019-05-23T03:46:14.463Z,30.40
2019-05-23T03:51:20.005Z,29.18
2019-05-23T03:56:24.874Z,30.12
2019-05-23T04:01:46.059Z,34.73
2019-05-23T04:11:40.638Z,28.73
2019-05-23T04:16:44.987Z,30.35
2019-05-23T04:21:49.725Z,29.05
2019-05-23T04:26:54.190Z,26.77
2019-05-23T04:32:07.577Z,26.02
2019-05-23T04:37:04.852Z,28.95
2019-05-23T04:42:10.497Z,31.00
2019-05-23T04:47:14.953Z,35.75
2019-05-23T04:52:19.989Z,30.37
2019-05-23T04:57:24.659Z,34.80
2019-05-23T05:02:30.578Z,41.28
2019-05-23T05:07:35.406Z,41.15
2019-05-23T05:12:40.323Z,39.40
2019-05-23T05:17:46.119Z,32.48
2019-05-23T05:22:51.188Z,38.40
2019-05-23T05:27:55.915Z,35.48
2019-05-23T05:33:00.451Z,33.23
2019-05-23T05:38:05.291Z,34.80
2019-05-23T05:43:09.669Z,30.43
2019-05-23T05:48:14.427Z,34.38
2019-05-23T05:53:18.827Z,33.98
2019-05-23T05:58:23.157Z,32.33
2019-05-23T06:03:27.897Z,36.65
2019-05-23T06:08:34.092Z,29.92
2019-05-23T06:13:39.009Z,30.62
2019-05-23T06:18:43.986Z,30.43
2019-05-23T06:23:48.600Z,28.47
2019-05-23T06:28:53.056Z,31.17
2019-05-23T06:33:57.558Z,30.05
2019-05-23T06:39:02.177Z,28.90
2019-05-23T06:44:08.480Z,31.27
2019-05-23T06:49:12.962Z,28.00
2019-05-23T06:54:17.721Z,27.67
2019-05-23T06:59:23.034Z,22.02
2019-05-23T07:04:27.437Z,18.00
2019-05-23T07:09:32.091Z,17.92
2019-05-23T07:14:36.720Z,21.45
2019-05-23T07:19:41.484Z,15.85
2019-05-23T07:24:57.587Z,16.20
2019-05-23T07:29:52.136Z,15.13
2019-05-23T07:34:56.881Z,13.80
2019-05-23T07:40:01.199Z,13.72
2019-05-23T07:45:08.749Z,13.80
2019-05-23T07:50:14.176Z,10.95
2019-05-23T07:55:20.332Z,9.55
2019-05-23T08:00:29.844Z,9.85
2019-05-23T08:05:36.407Z,9.55
2019-05-23T08:10:40.769Z,14.93
2019-05-23T08:15:46.012Z,14.43
2019-05-23T08:20:50.408Z,16.90
2019-05-23T08:25:54.877Z,13.95
2019-05-23T08:30:59.899Z,16.37
2019-05-23T08:36:05.401Z,19.12
2019-05-23T08:41:09.954Z,11.75
2019-05-23T08:46:15.109Z,14.10
2019-05-23T08:51:19.943Z,14.25
2019-05-23T08:56:24.872Z,14.60
2019-05-23T09:01:29.296Z,17.75
2019-05-23T09:06:35.345Z,15.32
2019-05-23T09:11:40.203Z,10.40
2019-05-23T09:16:44.683Z,12.05
2019-05-23T09:21:49.001Z,10.95
2019-05-23T09:26:54.459Z,9.08
2019-05-23T09:31:59.228Z,8.90
2019-05-23T09:37:05.150Z,8.03
2019-05-23T09:42:12.046Z,9.28
2019-05-23T09:47:15.741Z,11.83
2019-05-23T09:52:21.573Z,10.30
2019-05-23T09:57:25.978Z,11.03
2019-05-23T10:02:30.433Z,9.85
2019-05-23T10:07:34.919Z,15.55
2019-05-23T10:12:39.254Z,11.88
2019-05-23T10:17:43.650Z,9.15
2019-05-23T10:22:48.030Z,5.75
2019-05-23T10:27:55.770Z,9.30
2019-05-23T10:32:58.617Z,9.77
2019-05-23T10:38:03.284Z,11.57
2019-05-23T10:43:07.958Z,71.00
2019-05-23T10:48:13.915Z,6.80
2019-05-23T10:53:18.402Z,13.13
2019-05-23T10:58:22.926Z,8.13
2019-05-23T11:03:27.545Z,7.60
2019-05-23T11:08:32.158Z,8.50
2019-05-23T11:13:36.563Z,12.25
2019-05-23T11:18:41.061Z,13.22
2019-05-23T11:23:50.569Z,9.83
2019-05-23T11:28:56.726Z,11.08
2019-05-23T11:34:01.357Z,9.47
2019-05-23T11:39:08.852Z,11.00
2019-05-23T11:44:13.252Z,11.35
2019-05-23T11:49:18.072Z,20.00
2019-05-23T11:54:23.695Z,11.03
2019-05-23T11:59:28.552Z,9.43
2019-05-23T12:04:34.642Z,7.60
2019-05-23T12:09:40.721Z,4.97
2019-05-23T12:14:45.127Z,4.87
2019-05-23T12:19:49.508Z,10.18
2019-05-23T12:24:53.978Z,10.38
2019-05-23T12:29:58.781Z,14.83
2019-05-23T12:35:11.055Z,9.18
2019-05-23T12:40:12.646Z,7.83
2019-05-23T12:45:17.752Z,34.92
2019-05-23T12:50:29.470Z,8.68
2019-05-23T12:55:34.833Z,7.03
2019-05-23T13:00:40.950Z,10.40
2019-05-23T13:05:45.827Z,6.67
2019-05-23T13:10:50.150Z,8.25
2019-05-23T13:15:54.538Z,22.95
2019-05-23T13:20:59.881Z,45.45
2019-05-23T13:26:04.979Z,6.83
2019-05-23T13:31:09.460Z,8.25
2019-05-23T13:36:13.916Z,8.45
2019-05-23T13:41:18.657Z,7.53
2019-05-23T13:46:23.365Z,6.95
2019-05-23T13:51:28.123Z,14.25
2019-05-23T13:56:32.519Z,4.90
2019-05-23T14:01:37.778Z,8.63
2019-05-23T14:06:42.161Z,4.47
2019-05-23T14:11:46.607Z,7.67
2019-05-23T14:17:08.750Z,5.15
2019-05-23T14:22:13.187Z,9.13
2019-05-23T14:27:22.124Z,4.65
2019-05-23T14:32:30.620Z,7.50
2019-05-23T14:37:48.403Z,7.00
2019-05-23T14:42:54.624Z,4.35
2019-05-23T14:48:04.070Z,4.97
2019-05-23T14:53:10.018Z,7.90
2019-05-23T14:58:15.074Z,1.52
2019-05-23T15:03:20.456Z,3.40
2019-05-23T15:08:25.498Z,5.87
2019-05-23T15:13:29.951Z,3.70
2019-05-23T15:18:34.399Z,8.73
2019-05-23T15:23:39.202Z,5.30
2019-05-23T15:28:43.509Z,6.33
2019-05-23T15:33:47.979Z,5.60
2019-05-23T15:39:08.184Z,8.25
2019-05-23T15:49:04.109Z,5.53
2019-05-23T15:54:10.066Z,4.53
2019-05-23T15:59:25.122Z,6.10
2019-05-23T16:04:29.654Z,6.50
2019-05-23T16:09:34.498Z,4.78
2019-05-23T16:14:39.401Z,4.20
2019-05-23T16:19:44.028Z,6.37
2019-05-23T16:24:48.457Z,4.25
2019-05-23T16:29:53.007Z,5.25
2019-05-23T16:34:57.314Z,6.22
2019-05-23T16:40:01.702Z,3.15
2019-05-23T16:45:08.167Z,4.55
2019-05-23T16:50:13.383Z,4.80
2019-05-23T16:55:19.418Z,2.87
2019-05-23T17:00:42.241Z,2.98
2019-05-23T17:05:48.309Z,5.55
2019-05-23T17:10:54.260Z,4.83
2019-05-23T17:16:06.071Z,3.77
2019-05-23T17:21:17.881Z,4.22
2019-05-23T17:26:39.281Z,4.25
2019-05-23T17:31:45.233Z,4.05
2019-05-23T17:36:49.678Z,4.97
2019-05-23T17:41:54.834Z,3.83
2019-05-23T17:47:06.393Z,3.42
2019-05-23T17:52:10.842Z,3.08
2019-05-23T17:57:15.500Z,2.72
2019-05-23T18:02:20.265Z,4.42
2019-05-23T18:07:24.723Z,4.17
2019-05-23T18:12:29.287Z,5.70
2019-05-23T18:17:33.674Z,3.50
2019-05-23T18:22:38.691Z,6.75
2019-05-23T18:27:43.088Z,18.77
2019-05-23T18:32:48.456Z,6.60
2019-05-23T18:37:53.145Z,2.60
2019-05-23T18:42:57.524Z,6.20
2019-05-23T18:48:02.111Z,5.22
2019-05-23T18:53:06.573Z,4.53
2019-05-23T18:58:11.166Z,4.33
2019-05-23T19:03:18.863Z,2.72
2019-05-23T19:08:24.114Z,5.75
2019-05-23T19:13:28.917Z,7.17
2019-05-23T19:18:34.151Z,5.90
2019-05-23T19:23:39.471Z,6.58
2019-05-23T19:28:45.752Z,4.42
2019-05-23T19:33:50.220Z,7.13
2019-05-23T19:38:54.625Z,9.90
2019-05-23T19:43:59.010Z,4.97
2019-05-23T19:49:03.971Z,6.30
2019-05-23T19:54:08.533Z,7.35
2019-05-23T19:59:13.320Z,5.92
2019-05-23T20:04:19.361Z,15.15
2019-05-23T20:09:25.312Z,7.75
2019-05-23T20:14:29.694Z,8.55
2019-05-23T20:19:34.992Z,6.97
2019-05-23T20:24:40.231Z,7.78
2019-05-23T20:29:44.541Z,9.18
2019-05-23T20:34:49.157Z,9.55
2019-05-23T20:39:53.455Z,5.95
2019-05-23T20:44:58.670Z,4.83
2019-05-23T20:50:03.118Z,4.37
2019-05-23T20:55:07.762Z,8.00
2019-05-23T21:00:13.962Z,5.40
2019-05-23T21:05:18.439Z,12.50
2019-05-23T21:10:39.462Z,7.97
2019-05-23T21:15:50.123Z,11.68
2019-05-23T21:20:55.536Z,11.95
2019-05-23T21:26:03.994Z,8.23
2019-05-23T21:31:09.942Z,9.70
2019-05-23T21:36:14.324Z,8.60
2019-05-23T21:41:18.731Z,14.07
2019-05-23T21:46:23.187Z,9.50
2019-05-23T21:51:27.773Z,11.95
2019-05-23T21:56:32.084Z,8.53
2019-05-23T22:01:38.042Z,9.48
2019-05-23T22:06:44.271Z,9.08
2019-05-23T22:11:49.139Z,10.13
2019-05-23T22:16:53.533Z,12.33
2019-05-23T22:21:58.118Z,12.73
2019-05-23T22:27:10.524Z,15.40
2019-05-23T22:32:16.936Z,15.63
2019-05-23T22:37:23.512Z,17.73
2019-05-23T22:42:31.099Z,15.65
2019-05-23T22:47:36.718Z,20.12
2019-05-23T22:52:44.259Z,17.73
2019-05-23T23:04:13.978Z,15.93
2019-05-23T23:09:18.612Z,17.87
2019-05-23T23:14:23.008Z,18.25
2019-05-23T23:19:27.318Z,14.87
2019-05-23T23:24:31.819Z,14.07
2019-05-23T23:29:36.312Z,16.12
2019-05-23T23:34:42.551Z,10.35
2019-05-23T23:39:49.527Z,10.13
2019-05-23T23:44:53.294Z,8.93
2019-05-23T23:50:16.340Z,10.72
2019-05-23T23:55:42.413Z,14.85
